Time;durP1;ratioP1;P1;durP2;ratioP2;P2;SDS_P1;SDS_P2;PMS_P1;PMS_P2;Temp;Humidity;BMP_temperature;BMP_pressure;BME280_temperature;BME280_humidity;BME280_pressure;Samples;Min_cycle;Max_cycle;Signal;HPM_P1;HPM_P2
2023/03/12 00:01:47;;;;;;;13.27;5.72;;;;;;;;;;5085854;28;20037;-78
2023/03/12 00:04:13;;;;;;;9.90;5.30;;;;;;;;;;5072865;28;20098;-78
2023/03/12 00:06:39;;;;;;;8.60;5.28;;;;;;;;;;5081382;28;20059;-78
2023/03/12 00:09:07;;;;;;;11.38;5.85;;;;;;;;;;5090022;28;20586;-78
2023/03/12 00:11:34;;;;;;;13.00;5.50;;;;;;;;;;5087575;28;20097;-78
2023/03/12 00:14:00;;;;;;;10.30;5.10;;;;;;;;;;5072331;28;20048;-77
2023/03/12 00:16:26;;;;;;;10.13;4.95;;;;;;;;;;5072015;28;20091;-78
2023/03/12 00:18:53;;;;;;;8.77;4.55;;;;;;;;;;5076719;28;20051;-78
2023/03/12 00:21:20;;;;;;;10.07;4.80;;;;;;;;;;5079568;28;20048;-78
2023/03/12 00:23:47;;;;;;;13.02;4.68;;;;;;;;;;5075683;28;20475;-78
2023/03/12 00:26:13;;;;;;;10.55;4.90;;;;;;;;;;5079188;28;20040;-77
2023/03/12 00:28:40;;;;;;;9.85;4.65;;;;;;;;;;5092822;28;20637;-78
2023/03/12 00:31:14;;;;;;;8.88;4.57;;;;;;;;;;5082462;28;20067;-78
2023/03/12 00:33:40;;;;;;;12.23;4.95;;;;;;;;;;5079604;28;20044;-78
2023/03/12 00:36:06;;;;;;;10.82;4.88;;;;;;;;;;5096877;28;20048;-78
2023/03/12 00:38:32;;;;;;;14.80;5.63;;;;;;;;;;5093774;28;20048;-78
2023/03/12 00:40:58;;;;;;;10.65;4.78;;;;;;;;;;5096845;28;20101;-78
2023/03/12 00:43:24;;;;;;;12.85;5.13;;;;;;;;;;5095064;28;20048;-78
2023/03/12 00:45:50;;;;;;;10.20;5.05;;;;;;;;;;5095939;28;20048;-78
2023/03/12 00:48:16;;;;;;;8.15;5.10;;;;;;;;;;5075577;28;20044;-78
2023/03/12 00:50:42;;;;;;;11.10;4.82;;;;;;;;;;5077905;28;20044;-77
2023/03/12 00:53:08;;;;;;;11.95;4.65;;;;;;;;;;5081417;28;20044;-77
2023/03/12 00:55:35;;;;;;;11.30;5.35;;;;;;;;;;5086017;28;20047;-78
2023/03/12 00:58:01;;;;;;;9.18;5.30;;;;;;;;;;5076727;28;20045;-78
2023/03/12 01:00:27;;;;;;;9.68;4.72;;;;;;;;;;5076361;28;20082;-78
2023/03/12 01:02:54;;;;;;;11.75;5.00;;;;;;;;;;5079044;28;20052;-78
2023/03/12 01:05:20;;;;;;;10.27;5.53;;;;;;;;;;5091887;28;20135;-78
2023/03/12 01:07:47;;;;;;;11.63;4.95;;;;;;;;;;5075585;28;20071;-78
2023/03/12 01:10:14;;;;;;;8.40;4.88;;;;;;;;;;5075847;28;20405;-78
2023/03/12 01:12:40;;;;;;;9.95;5.10;;;;;;;;;;5079874;28;20056;-78
2023/03/12 01:15:07;;;;;;;11.40;5.22;;;;;;;;;;5079396;28;20063;-78
2023/03/12 01:17:33;;;;;;;10.25;4.80;;;;;;;;;;5087374;28;20040;-78
2023/03/12 01:19:59;;;;;;;9.18;4.50;;;;;;;;;;5075300;28;20449;-78
2023/03/12 01:22:25;;;;;;;11.80;4.65;;;;;;;;;;5077029;28;20409;-78
2023/03/12 01:24:51;;;;;;;9.27;4.55;;;;;;;;;;5086154;28;20051;-78
2023/03/12 01:27:19;;;;;;;14.65;4.72;;;;;;;;;;5085055;28;20043;-78
2023/03/12 01:29:45;;;;;;;11.00;5.80;;;;;;;;;;5088371;28;20090;-78
2023/03/12 01:32:11;;;;;;;13.75;5.63;;;;;;;;;;5075380;28;20052;-78
2023/03/12 01:34:37;;;;;;;8.80;5.20;;;;;;;;;;5075579;28;20051;-78
2023/03/12 01:37:03;;;;;;;12.13;5.85;;;;;;;;;;5075611;28;20045;-78
2023/03/12 01:39:29;;;;;;;14.32;5.75;;;;;;;;;;5075495;28;20056;-78
2023/03/12 01:41:55;;;;;;;13.65;5.25;;;;;;;;;;5074422;28;20042;-78
2023/03/12 01:44:21;;;;;;;10.45;4.93;;;;;;;;;;5073530;28;20040;-78
2023/03/12 01:46:47;;;;;;;9.77;5.90;;;;;;;;;;5074821;28;20041;-78
2023/03/12 01:49:13;;;;;;;18.20;6.18;;;;;;;;;;5075960;28;20040;-78
2023/03/12 01:51:46;;;;;;;13.18;5.97;;;;;;;;;;5057982;28;20055;-78
2023/03/12 01:54:20;;;;;;;14.80;6.55;;;;;;;;;;5079216;28;20052;-78
2023/03/12 01:56:46;;;;;;;14.38;6.00;;;;;;;;;;5086805;28;20058;-78
2023/03/12 01:59:18;;;;;;;13.55;6.25;;;;;;;;;;5075857;28;20044;-78
2023/03/12 02:01:45;;;;;;;13.38;6.57;;;;;;;;;;5078199;28;20090;-78
2023/03/12 02:04:12;;;;;;;11.23;6.25;;;;;;;;;;5090706;28;20494;-78
2023/03/12 02:06:42;;;;;;;9.48;5.57;;;;;;;;;;5084889;28;20048;-78
2023/03/12 02:09:09;;;;;;;12.23;5.70;;;;;;;;;;5075641;28;20099;-78
2023/03/12 02:11:35;;;;;;;14.77;5.90;;;;;;;;;;5074219;28;20295;-78
2023/03/12 02:14:01;;;;;;;12.07;5.93;;;;;;;;;;5075469;28;20094;-78
2023/03/12 02:16:28;;;;;;;14.95;6.88;;;;;;;;;;5075676;28;20047;-78
2023/03/12 02:18:55;;;;;;;12.40;6.20;;;;;;;;;;5090295;28;20094;-78
2023/03/12 02:21:25;;;;;;;13.43;5.95;;;;;;;;;;5088725;28;20040;-78
2023/03/12 02:24:01;;;;;;;11.88;5.63;;;;;;;;;;5078557;28;20050;-78
2023/03/12 02:26:28;;;;;;;11.40;5.72;;;;;;;;;;5079654;28;20048;-78
2023/03/12 02:28:55;;;;;;;11.50;5.68;;;;;;;;;;5093194;28;20036;-78
2023/03/12 02:31:23;;;;;;;14.00;6.80;;;;;;;;;;5074916;28;20041;-78
2023/03/12 02:33:50;;;;;;;13.68;6.30;;;;;;;;;;5074878;28;20494;-78
2023/03/12 02:36:16;;;;;;;12.00;5.38;;;;;;;;;;5074659;28;20517;-78
2023/03/12 02:38:42;;;;;;;12.85;6.60;;;;;;;;;;5090134;28;20066;-78
2023/03/12 02:41:14;;;;;;;10.85;5.63;;;;;;;;;;5073573;28;20055;-78
2023/03/12 02:43:42;;;;;;;12.40;5.60;;;;;;;;;;5074606;28;20494;-78
2023/03/12 02:46:08;;;;;;;8.73;5.28;;;;;;;;;;5074530;28;20040;-78
2023/03/12 02:48:35;;;;;;;15.73;5.53;;;;;;;;;;5074337;28;20080;-78
2023/03/12 02:51:02;;;;;;;10.55;5.63;;;;;;;;;;5076084;28;20127;-78
2023/03/12 02:53:28;;;;;;;10.23;5.07;;;;;;;;;;5094261;28;20058;-78
2023/03/12 02:55:54;;;;;;;11.60;5.50;;;;;;;;;;5080704;28;20123;-78
2023/03/12 02:58:20;;;;;;;12.32;5.18;;;;;;;;;;5072671;28;20532;-78
2023/03/12 03:00:47;;;;;;;11.85;5.55;;;;;;;;;;5074351;28;20464;-78
2023/03/12 03:03:13;;;;;;;9.50;5.22;;;;;;;;;;5073235;28;20502;-78
2023/03/12 03:05:40;;;;;;;10.60;6.15;;;;;;;;;;5084038;28;20070;-78
2023/03/12 03:08:06;;;;;;;12.18;5.28;;;;;;;;;;5092504;28;20044;-78
2023/03/12 03:10:32;;;;;;;12.27;5.40;;;;;;;;;;5074372;28;20048;-78
2023/03/12 03:12:59;;;;;;;10.93;5.38;;;;;;;;;;5080922;28;20041;-78
2023/03/12 03:15:25;;;;;;;11.20;5.13;;;;;;;;;;5077553;28;20036;-78
2023/03/12 03:17:52;;;;;;;11.68;5.22;;;;;;;;;;5081567;28;20048;-78
2023/03/12 03:20:18;;;;;;;12.77;5.72;;;;;;;;;;5085717;28;20051;-77
2023/03/12 03:22:44;;;;;;;9.23;5.13;;;;;;;;;;5084390;28;20048;-78
2023/03/12 03:25:11;;;;;;;10.45;5.75;;;;;;;;;;5089807;28;20040;-78
2023/03/12 03:27:37;;;;;;;11.20;5.93;;;;;;;;;;5072621;28;20388;-78
2023/03/12 03:30:04;;;;;;;12.38;5.85;;;;;;;;;;5082219;28;20041;-78
2023/03/12 03:32:30;;;;;;;11.18;5.57;;;;;;;;;;5075917;28;20044;-78
2023/03/12 03:34:56;;;;;;;12.20;6.35;;;;;;;;;;5075351;28;20495;-77
2023/03/12 03:37:22;;;;;;;11.57;5.95;;;;;;;;;;5083068;28;20036;-78
2023/03/12 03:39:48;;;;;;;11.82;5.95;;;;;;;;;;5093531;28;20048;-78
2023/03/12 03:42:14;;;;;;;16.42;6.28;;;;;;;;;;5091445;28;20066;-78
2023/03/12 03:44:40;;;;;;;13.05;5.95;;;;;;;;;;5092913;28;20051;-78
2023/03/12 03:47:06;;;;;;;10.68;5.95;;;;;;;;;;5091920;28;20067;-78
2023/03/12 03:49:32;;;;;;;10.95;6.25;;;;;;;;;;5091955;28;20040;-78
2023/03/12 03:51:58;;;;;;;13.38;6.22;;;;;;;;;;5092374;28;20071;-78
2023/03/12 03:54:24;;;;;;;13.98;7.20;;;;;;;;;;5093685;28;20052;-78
2023/03/12 03:56:50;;;;;;;10.10;6.28;;;;;;;;;;5093797;28;20490;-78
2023/03/12 03:59:16;;;;;;;15.50;6.80;;;;;;;;;;5092148;28;20130;-78
2023/03/12 04:01:42;;;;;;;13.55;6.60;;;;;;;;;;5090505;28;20040;-78
2023/03/12 04:04:08;;;;;;;13.75;6.60;;;;;;;;;;5074546;28;20052;-78
2023/03/12 04:06:34;;;;;;;12.07;6.97;;;;;;;;;;5088452;28;20052;-77
2023/03/12 04:09:00;;;;;;;10.98;7.22;;;;;;;;;;5072397;28;20489;-78
2023/03/12 04:11:27;;;;;;;11.65;6.90;;;;;;;;;;5078983;28;20044;-78
2023/03/12 04:13:53;;;;;;;15.43;7.47;;;;;;;;;;5092840;28;20128;-78
2023/03/12 04:16:19;;;;;;;11.68;7.70;;;;;;;;;;5091447;28;20118;-78
2023/03/12 04:18:45;;;;;;;12.02;7.38;;;;;;;;;;5079547;28;20043;-78
2023/03/12 04:21:12;;;;;;;13.63;7.43;;;;;;;;;;5076514;28;20498;-77
2023/03/12 04:23:38;;;;;;;13.90;7.63;;;;;;;;;;5073208;28;20067;-78
2023/03/12 04:26:05;;;;;;;16.33;7.93;;;;;;;;;;5075749;28;20044;-78
2023/03/12 04:28:31;;;;;;;12.98;7.50;;;;;;;;;;5074214;28;20043;-78
2023/03/12 04:30:58;;;;;;;13.90;7.55;;;;;;;;;;5080315;28;20044;-78
2023/03/12 04:33:25;;;;;;;11.70;7.07;;;;;;;;;;5071914;28;20048;-79
2023/03/12 04:35:54;;;;;;;10.35;7.22;;;;;;;;;;5071996;28;20051;-78
2023/03/12 04:38:21;;;;;;;14.23;7.35;;;;;;;;;;5071305;28;20509;-78
2023/03/12 04:40:47;;;;;;;10.98;6.78;;;;;;;;;;5071453;28;20033;-78
2023/03/12 04:43:13;;;;;;;15.02;7.13;;;;;;;;;;5071142;28;20097;-78
2023/03/12 04:45:41;;;;;;;14.27;7.07;;;;;;;;;;5071650;28;20055;-78
2023/03/12 04:48:07;;;;;;;12.73;7.00;;;;;;;;;;5071648;28;20052;-78
2023/03/12 04:50:33;;;;;;;11.55;7.00;;;;;;;;;;5071425;28;20052;-78
2023/03/12 04:52:59;;;;;;;12.00;7.22;;;;;;;;;;5071764;28;20045;-78
2023/03/12 04:55:25;;;;;;;14.10;7.10;;;;;;;;;;5072646;28;20040;-78
2023/03/12 04:57:51;;;;;;;10.73;6.72;;;;;;;;;;5079961;28;20053;-78
2023/03/12 05:00:18;;;;;;;15.68;7.35;;;;;;;;;;5070757;28;20052;-78
2023/03/12 05:02:44;;;;;;;14.23;7.03;;;;;;;;;;5073560;28;20049;-78
2023/03/12 05:05:11;;;;;;;11.07;7.20;;;;;;;;;;5072120;28;20073;-78
2023/03/12 05:07:37;;;;;;;15.50;7.10;;;;;;;;;;5071683;28;20079;-78
2023/03/12 05:10:03;;;;;;;16.92;6.82;;;;;;;;;;5077938;28;20052;-78
2023/03/12 05:12:29;;;;;;;15.50;8.00;;;;;;;;;;5082189;28;20044;-78
2023/03/12 05:14:55;;;;;;;14.35;8.00;;;;;;;;;;5081502;28;20052;-78
2023/03/12 05:17:21;;;;;;;13.85;7.60;;;;;;;;;;5083046;28;20563;-78
2023/03/12 05:19:47;;;;;;;14.90;8.25;;;;;;;;;;5082866;28;20048;-78
2023/03/12 05:22:13;;;;;;;12.38;7.53;;;;;;;;;;5078155;28;20047;-78
2023/03/12 05:24:39;;;;;;;13.73;7.53;;;;;;;;;;5077887;28;20048;-78
2023/03/12 05:27:07;;;;;;;13.77;7.80;;;;;;;;;;5077436;28;20044;-78
2023/03/12 05:29:34;;;;;;;13.63;7.68;;;;;;;;;;5089175;28;20048;-78
2023/03/12 05:32:01;;;;;;;15.15;7.53;;;;;;;;;;5083933;28;20671;-78
2023/03/12 05:34:29;;;;;;;15.23;8.15;;;;;;;;;;5076987;28;20483;-78
2023/03/12 05:36:55;;;;;;;14.70;7.75;;;;;;;;;;5078824;28;20123;-78
2023/03/12 05:39:22;;;;;;;16.67;8.57;;;;;;;;;;5093741;28;20094;-78
2023/03/12 05:41:48;;;;;;;15.68;7.65;;;;;;;;;;5093855;28;20051;-78
2023/03/12 05:44:14;;;;;;;16.25;8.00;;;;;;;;;;5093910;28;20485;-78
2023/03/12 05:46:42;;;;;;;13.10;7.65;;;;;;;;;;5095738;28;20066;-78
2023/03/12 05:49:08;;;;;;;14.65;8.07;;;;;;;;;;5083248;28;20548;-78
2023/03/12 05:51:34;;;;;;;12.68;7.15;;;;;;;;;;5074774;28;20052;-78
2023/03/12 05:54:01;;;;;;;15.32;8.35;;;;;;;;;;5077738;28;20508;-78
2023/03/12 05:56:27;;;;;;;12.25;7.50;;;;;;;;;;5081688;28;20120;-78
2023/03/12 05:58:54;;;;;;;12.88;7.60;;;;;;;;;;5074278;28;20140;-78
2023/03/12 06:01:21;;;;;;;14.23;8.00;;;;;;;;;;5072240;28;20053;-78
2023/03/12 06:03:47;;;;;;;16.95;7.07;;;;;;;;;;5080752;28;20041;-78
2023/03/12 06:06:13;;;;;;;12.75;7.28;;;;;;;;;;5073329;28;20048;-78
2023/03/12 06:08:40;;;;;;;12.45;7.00;;;;;;;;;;5073186;28;20064;-78
2023/03/12 06:11:06;;;;;;;13.95;7.63;;;;;;;;;;5078307;28;20044;-78
2023/03/12 06:13:32;;;;;;;11.30;6.65;;;;;;;;;;5084228;28;20047;-78
2023/03/12 06:16:03;;;;;;;11.93;6.82;;;;;;;;;;5089891;28;20086;-78
2023/03/12 06:18:29;;;;;;;13.18;7.28;;;;;;;;;;5076914;28;20534;-78
2023/03/12 06:20:55;;;;;;;11.57;7.15;;;;;;;;;;5090920;28;20052;-78
2023/03/12 06:23:21;;;;;;;13.07;7.28;;;;;;;;;;5085590;28;20124;-78
2023/03/12 06:25:47;;;;;;;15.13;7.78;;;;;;;;;;5082142;28;20113;-78
2023/03/12 06:28:13;;;;;;;16.27;7.78;;;;;;;;;;5081071;28;20048;-78
2023/03/12 06:30:39;;;;;;;14.00;7.07;;;;;;;;;;5072927;28;20503;-78
2023/03/12 06:33:07;;;;;;;12.25;7.72;;;;;;;;;;5073462;28;20052;-78
2023/03/12 06:35:34;;;;;;;10.55;7.55;;;;;;;;;;5081773;28;20055;-78
2023/03/12 06:38:00;;;;;;;13.85;8.05;;;;;;;;;;5073069;28;20123;-78
2023/03/12 06:40:26;;;;;;;14.35;8.13;;;;;;;;;;5079073;28;20407;-79
2023/03/12 06:42:52;;;;;;;13.23;7.45;;;;;;;;;;5074431;28;20052;-78
2023/03/12 06:45:18;;;;;;;13.00;7.95;;;;;;;;;;5087197;28;20059;-78
2023/03/12 06:47:44;;;;;;;13.38;8.05;;;;;;;;;;5071984;28;20052;-78
2023/03/12 06:50:10;;;;;;;15.50;8.20;;;;;;;;;;5086742;28;20132;-78
2023/03/12 06:52:36;;;;;;;14.10;8.52;;;;;;;;;;5091867;28;20097;-77
2023/03/12 06:55:03;;;;;;;12.43;8.32;;;;;;;;;;5073929;28;20044;-77
2023/03/12 06:57:29;;;;;;;12.55;8.35;;;;;;;;;;5090610;28;20048;-78
2023/03/12 06:59:55;;;;;;;16.90;8.60;;;;;;;;;;5073916;28;20040;-77
2023/03/12 07:02:21;;;;;;;14.35;8.02;;;;;;;;;;5087265;28;20132;-78
2023/03/12 07:04:47;;;;;;;14.43;8.57;;;;;;;;;;5073515;28;20475;-77
2023/03/12 07:07:14;;;;;;;13.10;8.32;;;;;;;;;;5072666;28;20056;-78
2023/03/12 07:09:40;;;;;;;13.25;8.10;;;;;;;;;;5072351;28;20040;-78
2023/03/12 07:12:07;;;;;;;13.50;8.43;;;;;;;;;;5073386;28;20052;-77
2023/03/12 07:14:33;;;;;;;14.35;8.18;;;;;;;;;;5082282;28;20040;-78
2023/03/12 07:17:01;;;;;;;13.10;7.90;;;;;;;;;;5079583;28;20048;-78
2023/03/12 07:19:29;;;;;;;11.73;8.20;;;;;;;;;;5075760;28;20098;-79
2023/03/12 07:21:55;;;;;;;11.88;7.85;;;;;;;;;;5073192;28;20055;-78
2023/03/12 07:24:21;;;;;;;15.07;7.82;;;;;;;;;;5073829;28;20044;-78
2023/03/12 07:26:47;;;;;;;13.90;7.80;;;;;;;;;;5073971;28;20052;-78
2023/03/12 07:29:13;;;;;;;14.32;8.10;;;;;;;;;;5084847;28;20077;-78
2023/03/12 07:31:39;;;;;;;13.10;7.50;;;;;;;;;;5081460;28;20525;-78
2023/03/12 07:34:05;;;;;;;16.08;7.85;;;;;;;;;;5080292;28;20048;-78
2023/03/12 07:36:32;;;;;;;13.75;7.60;;;;;;;;;;5079169;28;20411;-77
2023/03/12 07:38:58;;;;;;;16.33;7.88;;;;;;;;;;5089735;28;20044;-77
2023/03/12 07:41:24;;;;;;;12.55;7.63;;;;;;;;;;5090501;28;20489;-77
2023/03/12 07:43:50;;;;;;;12.88;7.63;;;;;;;;;;5091757;28;20053;-78
2023/03/12 07:46:16;;;;;;;14.75;8.50;;;;;;;;;;5078849;28;20086;-78
2023/03/12 07:48:42;;;;;;;14.57;8.07;;;;;;;;;;5071710;28;20059;-78
2023/03/12 07:51:08;;;;;;;14.00;8.18;;;;;;;;;;5076164;28;20402;-78
2023/03/12 07:53:34;;;;;;;13.43;9.20;;;;;;;;;;5071068;28;20094;-77
2023/03/12 07:56:00;;;;;;;13.32;8.50;;;;;;;;;;5073939;28;20059;-78
2023/03/12 07:58:26;;;;;;;17.95;9.40;;;;;;;;;;5090489;28;20044;-77
2023/03/12 08:00:54;;;;;;;17.70;8.63;;;;;;;;;;5074269;28;20067;-78
2023/03/12 08:03:20;;;;;;;12.48;8.23;;;;;;;;;;5072040;28;20080;-78
2023/03/12 08:05:54;;;;;;;15.48;8.63;;;;;;;;;;5072016;28;20052;-77
2023/03/12 08:08:20;;;;;;;15.10;8.82;;;;;;;;;;5071734;28;20091;-77
2023/03/12 08:10:47;;;;;;;14.02;8.27;;;;;;;;;;5081754;28;20513;-77
2023/03/12 08:13:13;;;;;;;14.40;8.00;;;;;;;;;;5090038;28;20075;-77
2023/03/12 08:15:39;;;;;;;13.70;8.85;;;;;;;;;;5073299;28;20044;-77
2023/03/12 08:18:05;;;;;;;13.00;8.32;;;;;;;;;;5072287;28;20097;-77
2023/03/12 08:20:31;;;;;;;13.95;8.90;;;;;;;;;;5070796;28;20040;-77
2023/03/12 08:22:57;;;;;;;16.45;9.30;;;;;;;;;;5072398;28;20044;-77
2023/03/12 08:25:23;;;;;;;16.95;8.48;;;;;;;;;;5080109;28;20048;-77
2023/03/12 08:27:49;;;;;;;14.15;8.32;;;;;;;;;;5072378;28;20052;-77
2023/03/12 08:30:15;;;;;;;12.57;8.73;;;;;;;;;;5088037;28;20044;-77
2023/03/12 08:32:41;;;;;;;13.73;8.85;;;;;;;;;;5091050;28;20032;-77
2023/03/12 08:35:08;;;;;;;15.65;8.73;;;;;;;;;;5074427;28;20044;-77
2023/03/12 08:37:35;;;;;;;17.25;8.75;;;;;;;;;;5087901;28;20532;-77
2023/03/12 08:40:07;;;;;;;16.35;9.48;;;;;;;;;;5077357;28;20086;-77
2023/03/12 08:42:33;;;;;;;12.98;8.25;;;;;;;;;;5071702;28;20478;-77
2023/03/12 08:44:59;;;;;;;13.60;8.75;;;;;;;;;;5072122;28;20048;-77
2023/03/12 08:47:26;;;;;;;18.40;9.43;;;;;;;;;;5077454;28;20047;-77
2023/03/12 08:49:52;;;;;;;12.07;8.50;;;;;;;;;;5085604;28;20051;-77
2023/03/12 08:52:18;;;;;;;14.98;9.15;;;;;;;;;;5080847;28;20040;-77
2023/03/12 08:54:44;;;;;;;15.25;8.27;;;;;;;;;;5087113;28;20056;-77
2023/03/12 08:57:10;;;;;;;14.45;8.20;;;;;;;;;;5080427;28;20045;-77
2023/03/12 08:59:36;;;;;;;16.48;8.95;;;;;;;;;;5082394;28;20066;-77
2023/03/12 09:02:02;;;;;;;15.13;8.48;;;;;;;;;;5088936;28;20405;-77
2023/03/12 09:04:28;;;;;;;15.00;8.63;;;;;;;;;;5076072;28;20169;-78
2023/03/12 09:06:54;;;;;;;17.33;8.40;;;;;;;;;;5083234;28;20044;-77
2023/03/12 09:09:20;;;;;;;13.98;8.27;;;;;;;;;;5091875;28;20036;-77
2023/03/12 09:11:46;;;;;;;12.55;8.18;;;;;;;;;;5078755;28;20048;-77
2023/03/12 09:14:12;;;;;;;12.27;7.47;;;;;;;;;;5082484;28;20498;-78
2023/03/12 09:16:38;;;;;;;15.27;8.52;;;;;;;;;;5075428;28;20070;-77
2023/03/12 09:19:04;;;;;;;15.55;9.18;;;;;;;;;;5086386;28;20055;-78
2023/03/12 09:21:30;;;;;;;11.70;8.65;;;;;;;;;;5084015;28;20055;-77
2023/03/12 09:23:57;;;;;;;16.42;8.55;;;;;;;;;;5088567;28;20048;-77
2023/03/12 09:26:23;;;;;;;12.38;8.18;;;;;;;;;;5082364;28;20123;-78
2023/03/12 09:28:49;;;;;;;13.93;8.95;;;;;;;;;;5095177;28;20113;-79
2023/03/12 09:31:15;;;;;;;18.00;9.60;;;;;;;;;;5086004;28;20148;-78
2023/03/12 09:33:41;;;;;;;16.85;8.88;;;;;;;;;;5075181;28;20098;-78
2023/03/12 09:36:07;;;;;;;16.23;9.95;;;;;;;;;;5073601;28;20051;-79
2023/03/12 09:38:34;;;;;;;14.13;9.30;;;;;;;;;;5075538;28;20048;-77
2023/03/12 09:41:01;;;;;;;16.45;8.85;;;;;;;;;;5074281;28;20067;-78
2023/03/12 09:43:31;;;;;;;15.10;8.88;;;;;;;;;;5056746;28;20486;-78
2023/03/12 09:45:57;;;;;;;16.88;10.23;;;;;;;;;;5074553;28;20045;-77
2023/03/12 09:48:33;;;;;;;16.58;10.02;;;;;;;;;;5081131;28;20154;-77
2023/03/12 09:51:02;;;;;;;16.52;10.50;;;;;;;;;;5079747;28;20568;-78
2023/03/12 09:53:28;;;;;;;19.80;12.07;;;;;;;;;;5074791;28;20052;-78
2023/03/12 09:55:56;;;;;;;16.45;11.20;;;;;;;;;;5073175;28;20178;-77
2023/03/12 09:58:22;;;;;;;17.45;11.45;;;;;;;;;;5091688;28;20115;-77
2023/03/12 10:00:48;;;;;;;14.50;10.63;;;;;;;;;;5093558;28;20048;-77
2023/03/12 10:03:26;;;;;;;14.18;10.90;;;;;;;;;;5093925;28;20044;-77
2023/03/12 10:06:00;;;;;;;16.98;11.77;;;;;;;;;;5094207;28;20071;-78
2023/03/12 10:08:26;;;;;;;19.40;11.60;;;;;;;;;;5094663;28;20044;-79
2023/03/12 10:10:54;;;;;;;15.93;10.55;;;;;;;;;;5092829;28;20414;-77
2023/03/12 10:13:23;;;;;;;15.07;11.63;;;;;;;;;;5074193;28;20056;-78
2023/03/12 10:15:52;;;;;;;17.80;12.02;;;;;;;;;;5073998;28;20050;-77
2023/03/12 10:18:21;;;;;;;16.17;11.10;;;;;;;;;;5083360;28;20522;-78
2023/03/12 10:21:06;;;;;;;17.02;11.68;;;;;;;;;;5093772;28;20040;-78
2023/03/12 10:23:38;;;;;;;18.40;13.18;;;;;;;;;;5089420;28;20490;-78
2023/03/12 10:26:09;;;;;;;18.05;13.77;;;;;;;;;;5072771;28;20083;-78
2023/03/12 10:28:49;;;;;;;19.48;13.57;;;;;;;;;;5073960;28;20052;-78
2023/03/12 10:31:19;;;;;;;19.63;14.50;;;;;;;;;;5085691;28;20041;-78
2023/03/12 10:33:58;;;;;;;19.05;13.90;;;;;;;;;;5074357;28;20052;-77
2023/03/12 10:36:33;;;;;;;19.17;14.13;;;;;;;;;;5090801;28;20169;-78
2023/03/12 10:39:00;;;;;;;19.50;13.98;;;;;;;;;;5077169;28;20052;-77
2023/03/12 10:41:29;;;;;;;17.75;13.55;;;;;;;;;;5077041;28;20049;-78
2023/03/12 10:43:57;;;;;;;17.15;14.25;;;;;;;;;;5074315;28;20075;-78
2023/03/12 10:46:23;;;;;;;20.00;13.98;;;;;;;;;;5075029;28;20168;-78
2023/03/12 10:48:49;;;;;;;19.02;14.07;;;;;;;;;;5075041;28;20044;-78
2023/03/12 10:51:15;;;;;;;17.48;13.68;;;;;;;;;;5086472;28;20044;-78
2023/03/12 10:53:43;;;;;;;18.48;14.02;;;;;;;;;;5082054;28;20048;-78
2023/03/12 10:56:14;;;;;;;20.77;14.38;;;;;;;;;;5095080;28;20488;-78
2023/03/12 10:58:53;;;;;;;19.08;14.25;;;;;;;;;;5076725;28;20098;-78
2023/03/12 11:01:19;;;;;;;18.23;13.90;;;;;;;;;;5080909;28;20383;-78
2023/03/12 11:03:45;;;;;;;19.90;14.00;;;;;;;;;;5077694;28;20131;-78
2023/03/12 11:06:22;;;;;;;19.85;13.32;;;;;;;;;;5073064;28;20521;-78
2023/03/12 11:09:17;;;;;;;15.65;12.75;;;;;;;;;;5077031;28;20045;-79
2023/03/12 11:11:44;;;;;;;17.27;13.55;;;;;;;;;;5081006;28;20089;-79
2023/03/12 11:14:11;;;;;;;16.58;13.55;;;;;;;;;;5089843;28;20044;-79
2023/03/12 11:16:38;;;;;;;21.90;17.30;;;;;;;;;;5088464;28;20074;-79
2023/03/12 11:19:05;;;;;;;17.25;14.98;;;;;;;;;;5094191;28;20101;-79
2023/03/12 11:21:35;;;;;;;24.60;17.85;;;;;;;;;;5083651;28;20052;-78
2023/03/12 11:24:06;;;;;;;19.33;16.40;;;;;;;;;;5088156;28;20498;-79
2023/03/12 11:26:52;;;;;;;20.73;15.73;;;;;;;;;;5084513;28;20073;-79
2023/03/12 11:29:32;;;;;;;65.00;43.67;;;;;;;;;;5086514;28;20043;-78
2023/03/12 11:32:00;;;;;;;37.85;25.70;;;;;;;;;;5078304;28;20048;-77
2023/03/12 11:34:29;;;;;;;28.52;24.27;;;;;;;;;;5076177;28;20052;-78
2023/03/12 11:36:58;;;;;;;20.13;17.73;;;;;;;;;;5096677;28;20044;-79
2023/03/12 11:39:24;;;;;;;23.45;19.45;;;;;;;;;;5094807;28;20052;-79
2023/03/12 11:41:59;;;;;;;23.13;19.67;;;;;;;;;;5095820;28;20059;-79
2023/03/12 11:44:38;;;;;;;23.75;19.75;;;;;;;;;;5078550;28;20052;-78
2023/03/12 11:47:10;;;;;;;21.73;16.08;;;;;;;;;;5085679;28;20048;-78
2023/03/12 11:49:45;;;;;;;21.17;18.10;;;;;;;;;;5089699;28;20082;-78
2023/03/12 11:52:20;;;;;;;21.83;17.95;;;;;;;;;;5082599;28;20471;-79
2023/03/12 11:55:05;;;;;;;23.27;18.20;;;;;;;;;;5090109;28;20043;-78
2023/03/12 11:57:39;;;;;;;20.98;17.27;;;;;;;;;;5096708;28;20052;-79
2023/03/12 12:00:16;;;;;;;23.50;18.50;;;;;;;;;;5090666;28;20044;-78
2023/03/12 12:02:42;;;;;;;26.75;18.10;;;;;;;;;;5076818;28;20044;-80
2023/03/12 12:05:31;;;;;;;26.77;19.05;;;;;;;;;;5076137;28;20112;-79
2023/03/12 12:08:00;;;;;;;27.50;18.23;;;;;;;;;;5087833;28;20390;-78
2023/03/12 12:10:27;;;;;;;24.90;18.95;;;;;;;;;;5081510;28;20051;-78
2023/03/12 12:13:13;;;;;;;23.05;19.08;;;;;;;;;;5093886;28;20071;-78
2023/03/12 12:15:45;;;;;;;24.83;19.52;;;;;;;;;;5083398;28;20047;-77
2023/03/12 12:18:20;;;;;;;26.35;21.80;;;;;;;;;;5093404;28;20101;-78
2023/03/12 12:20:46;;;;;;;32.90;28.85;;;;;;;;;;5081351;28;20044;-78
2023/03/12 12:23:17;;;;;;;46.88;42.17;;;;;;;;;;5069255;28;20046;-78
2023/03/12 12:25:43;;;;;;;35.23;31.23;;;;;;;;;;5083035;28;20044;-78
2023/03/12 12:28:09;;;;;;;32.85;26.52;;;;;;;;;;5093313;28;20757;-78
2023/03/12 12:30:44;;;;;;;27.35;23.25;;;;;;;;;;5084831;28;20363;-78
2023/03/12 12:33:16;;;;;;;22.52;17.65;;;;;;;;;;5092727;28;20437;-78
2023/03/12 12:35:43;;;;;;;25.10;18.98;;;;;;;;;;5085267;28;20047;-78
2023/03/12 12:38:09;;;;;;;22.95;16.15;;;;;;;;;;5079861;28;20055;-78
2023/03/12 12:40:40;;;;;;;23.08;17.35;;;;;;;;;;5082217;28;20044;-78
2023/03/12 12:43:23;;;;;;;28.42;18.95;;;;;;;;;;5090981;28;20037;-79
2023/03/12 12:45:51;;;;;;;22.60;16.52;;;;;;;;;;5101122;28;20123;-78
2023/03/12 12:48:20;;;;;;;22.70;15.82;;;;;;;;;;5090603;28;20053;-79
2023/03/12 12:50:47;;;;;;;25.15;16.05;;;;;;;;;;5094167;28;20043;-78
2023/03/12 12:53:21;;;;;;;24.58;16.70;;;;;;;;;;5097106;28;20103;-78
2023/03/12 12:55:50;;;;;;;26.40;17.38;;;;;;;;;;5082615;28;20040;-78
2023/03/12 12:58:22;;;;;;;20.55;14.90;;;;;;;;;;5081456;28;20052;-78
2023/03/12 13:00:50;;;;;;;20.38;15.90;;;;;;;;;;5088336;28;20461;-78
2023/03/12 13:03:18;;;;;;;21.67;15.13;;;;;;;;;;5085281;28;20047;-78
2023/03/12 13:05:58;;;;;;;24.60;17.30;;;;;;;;;;5095874;28;20067;-78
2023/03/12 13:08:51;;;;;;;23.50;16.13;;;;;;;;;;5089487;28;20119;-78
2023/03/12 13:11:17;;;;;;;20.92;14.93;;;;;;;;;;5088400;28;20055;-78
2023/03/12 13:13:44;;;;;;;18.35;13.25;;;;;;;;;;5084524;28;20075;-78
2023/03/12 13:16:27;;;;;;;20.10;13.38;;;;;;;;;;5078832;28;20123;-78
2023/03/12 13:19:06;;;;;;;20.25;13.27;;;;;;;;;;5086315;28;20044;-78
2023/03/12 13:21:34;;;;;;;16.38;12.45;;;;;;;;;;5078901;28;20040;-78
2023/03/12 13:24:27;;;;;;;17.77;13.50;;;;;;;;;;5081350;28;20044;-78
2023/03/12 13:26:58;;;;;;;22.05;13.88;;;;;;;;;;5098397;28;20091;-78
2023/03/12 13:29:36;;;;;;;20.73;14.75;;;;;;;;;;5098596;28;20043;-78
2023/03/12 13:32:03;;;;;;;19.55;13.80;;;;;;;;;;5096102;28;20041;-78
2023/03/12 13:34:31;;;;;;;21.95;14.65;;;;;;;;;;5092199;28;20112;-78
2023/03/12 13:36:58;;;;;;;24.48;14.85;;;;;;;;;;5098190;28;20067;-78
2023/03/12 13:39:33;;;;;;;20.92;13.63;;;;;;;;;;5098660;28;20085;-79
2023/03/12 13:42:00;;;;;;;23.90;15.43;;;;;;;;;;5094133;28;20091;-78
2023/03/12 13:44:26;;;;;;;30.33;18.15;;;;;;;;;;5095993;28;20082;-79
2023/03/12 13:47:04;;;;;;;41.05;21.67;;;;;;;;;;5095064;28;20129;-78
2023/03/12 13:49:42;;;;;;;66.95;30.20;;;;;;;;;;5078692;28;20393;-78
2023/03/12 13:52:08;;;;;;;31.60;19.95;;;;;;;;;;5078029;28;20044;-78
2023/03/12 13:54:34;;;;;;;29.77;18.42;;;;;;;;;;5084023;28;20048;-78
2023/03/12 13:57:03;;;;;;;33.17;20.35;;;;;;;;;;5096135;28;20094;-78
2023/03/12 13:59:29;;;;;;;44.28;28.60;;;;;;;;;;5079082;28;20048;-78
2023/03/12 14:02:11;;;;;;;35.50;21.08;;;;;;;;;;5086339;28;20070;-79
2023/03/12 14:04:39;;;;;;;39.25;19.90;;;;;;;;;;5088880;28;20055;-78
2023/03/12 14:07:24;;;;;;;36.92;19.35;;;;;;;;;;5079149;28;20052;-79
2023/03/12 14:10:05;;;;;;;47.65;21.95;;;;;;;;;;5079792;28;20060;-79
2023/03/12 14:12:37;;;;;;;49.35;21.42;;;;;;;;;;5089675;28;20078;-79
2023/03/12 14:15:22;;;;;;;48.95;20.88;;;;;;;;;;5083015;28;20051;-78
2023/03/12 14:17:53;;;;;;;50.13;21.63;;;;;;;;;;5101874;28;20090;-79
2023/03/12 14:20:21;;;;;;;53.70;22.67;;;;;;;;;;5123705;28;20044;-79
2023/03/12 14:22:54;;;;;;;63.10;25.67;;;;;;;;;;5120760;28;20313;-79
2023/03/12 14:25:37;;;;;;;48.90;21.27;;;;;;;;;;5103892;28;20048;-79
2023/03/12 14:28:05;;;;;;;63.60;25.63;;;;;;;;;;5089155;28;20127;-79
2023/03/12 14:30:31;;;;;;;51.75;23.63;;;;;;;;;;5099780;28;20048;-79
2023/03/12 14:32:58;;;;;;;51.22;23.15;;;;;;;;;;5099433;28;20048;-79